sensor_id;sensor_type;location;lat;lon;timestamp;P1;durP1;ratioP1;P2;durP2;ratioP2
41667;SDS011;27356;50.920;5.350;2023-04-01T00:00:17;5.68;;;1.02;;
41667;SDS011;27356;50.920;5.350;2023-04-01T00:02:43;2.92;;;0.57;;
41667;SDS011;27356;50.920;5.350;2023-04-01T00:05:09;5.35;;;0.63;;
41667;SDS011;27356;50.920;5.350;2023-04-01T00:07:36;4.20;;;0.75;;
41667;SDS011;27356;50.920;5.350;2023-04-01T00:10:06;2.70;;;0.47;;
41667;SDS011;27356;50.920;5.350;2023-04-01T00:12:32;3.60;;;0.73;;
41667;SDS011;27356;50.920;5.350;2023-04-01T00:14:58;4.03;;;0.60;;
41667;SDS011;27356;50.920;5.350;2023-04-01T00:17:24;2.72;;;0.63;;
41667;SDS011;27356;50.920;5.350;2023-04-01T00:19:51;5.75;;;0.98;;
41667;SDS011;27356;50.920;5.350;2023-04-01T00:22:16;5.88;;;0.45;;
41667;SDS011;27356;50.920;5.350;2023-04-01T00:24:42;2.85;;;0.63;;
41667;SDS011;27356;50.920;5.350;2023-04-01T00:27:08;1.80;;;0.40;;
41667;SDS011;27356;50.920;5.350;2023-04-01T00:29:35;2.60;;;0.40;;
41667;SDS011;27356;50.920;5.350;2023-04-01T00:32:01;3.03;;;0.35;;
41667;SDS011;27356;50.920;5.350;2023-04-01T00:34:26;2.25;;;0.52;;
41667;SDS011;27356;50.920;5.350;2023-04-01T00:36:52;4.35;;;0.60;;
41667;SDS011;27356;50.920;5.350;2023-04-01T00:39:19;5.75;;;0.77;;
41667;SDS011;27356;50.920;5.350;2023-04-01T00:41:45;3.67;;;0.40;;
41667;SDS011;27356;50.920;5.350;2023-04-01T00:44:16;3.78;;;0.60;;
41667;SDS011;27356;50.920;5.350;2023-04-01T00:46:44;2.65;;;0.40;;
41667;SDS011;27356;50.920;5.350;2023-04-01T00:49:10;5.25;;;0.68;;
41667;SDS011;27356;50.920;5.350;2023-04-01T00:51:37;2.65;;;0.40;;
41667;SDS011;27356;50.920;5.350;2023-04-01T00:54:03;3.97;;;0.55;;
41667;SDS011;27356;50.920;5.350;2023-04-01T00:56:32;4.32;;;0.60;;
41667;SDS011;27356;50.920;5.350;2023-04-01T00:59:02;2.17;;;0.60;;
41667;SDS011;27356;50.920;5.350;2023-04-01T01:01:33;5.40;;;0.77;;
41667;SDS011;27356;50.920;5.350;2023-04-01T01:04:00;4.72;;;0.73;;
41667;SDS011;27356;50.920;5.350;2023-04-01T01:16:58;3.58;;;1.00;;
41667;SDS011;27356;50.920;5.350;2023-04-01T01:27:40;5.20;;;1.17;;
41667;SDS011;27356;50.920;5.350;2023-04-01T01:30:21;2.75;;;1.13;;
41667;SDS011;27356;50.920;5.350;2023-04-01T01:35:51;3.05;;;0.52;;
41667;SDS011;27356;50.920;5.350;2023-04-01T01:38:22;3.45;;;0.50;;
41667;SDS011;27356;50.920;5.350;2023-04-01T01:40:51;3.15;;;0.55;;
41667;SDS011;27356;50.920;5.350;2023-04-01T01:43:22;2.45;;;0.60;;
41667;SDS011;27356;50.920;5.350;2023-04-01T01:45:52;1.50;;;0.57;;
41667;SDS011;27356;50.920;5.350;2023-04-01T01:48:21;2.40;;;0.43;;
41667;SDS011;27356;50.920;5.350;2023-04-01T01:50:48;2.70;;;0.50;;
41667;SDS011;27356;50.920;5.350;2023-04-01T01:53:15;5.32;;;0.60;;
41667;SDS011;27356;50.920;5.350;2023-04-01T01:55:42;3.55;;;0.47;;
41667;SDS011;27356;50.920;5.350;2023-04-01T02:00:54;2.58;;;0.50;;
41667;SDS011;27356;50.920;5.350;2023-04-01T02:03:24;4.32;;;0.75;;
41667;SDS011;27356;50.920;5.350;2023-04-01T02:05:53;1.75;;;0.52;;
41667;SDS011;27356;50.920;5.350;2023-04-01T02:11:21;3.45;;;0.60;;
41667;SDS011;27356;50.920;5.350;2023-04-01T02:16:23;2.03;;;0.60;;
41667;SDS011;27356;50.920;5.350;2023-04-01T02:18:59;2.65;;;0.68;;
41667;SDS011;27356;50.920;5.350;2023-04-01T02:21:27;2.08;;;0.80;;
41667;SDS011;27356;50.920;5.350;2023-04-01T02:23:57;1.00;;;0.40;;
41667;SDS011;27356;50.920;5.350;2023-04-01T02:26:25;1.58;;;0.57;;
41667;SDS011;27356;50.920;5.350;2023-04-01T02:28:52;1.92;;;0.90;;
41667;SDS011;27356;50.920;5.350;2023-04-01T02:31:19;2.03;;;0.45;;
41667;SDS011;27356;50.920;5.350;2023-04-01T02:33:46;2.03;;;0.60;;
41667;SDS011;27356;50.920;5.350;2023-04-01T02:36:13;1.95;;;0.63;;
41667;SDS011;27356;50.920;5.350;2023-04-01T02:38:39;1.00;;;0.55;;
41667;SDS011;27356;50.920;5.350;2023-04-01T02:41:06;1.70;;;0.63;;
41667;SDS011;27356;50.920;5.350;2023-04-01T02:43:32;1.95;;;0.82;;
41667;SDS011;27356;50.920;5.350;2023-04-01T02:45:58;2.33;;;1.05;;
41667;SDS011;27356;50.920;5.350;2023-04-01T02:48:24;2.30;;;0.82;;
41667;SDS011;27356;50.920;5.350;2023-04-01T02:50:50;4.97;;;1.27;;
41667;SDS011;27356;50.920;5.350;2023-04-01T02:53:15;1.30;;;0.93;;
41667;SDS011;27356;50.920;5.350;2023-04-01T02:55:42;3.55;;;1.20;;
41667;SDS011;27356;50.920;5.350;2023-04-01T02:58:07;1.77;;;0.90;;
41667;SDS011;27356;50.920;5.350;2023-04-01T03:00:33;3.13;;;1.30;;
41667;SDS011;27356;50.920;5.350;2023-04-01T03:02:59;1.15;;;0.85;;
41667;SDS011;27356;50.920;5.350;2023-04-01T03:05:25;2.13;;;1.05;;
41667;SDS011;27356;50.920;5.350;2023-04-01T03:07:51;2.70;;;1.15;;
41667;SDS011;27356;50.920;5.350;2023-04-01T03:10:16;1.88;;;1.08;;
41667;SDS011;27356;50.920;5.350;2023-04-01T03:12:42;0.90;;;0.77;;
41667;SDS011;27356;50.920;5.350;2023-04-01T03:15:09;2.28;;;1.00;;
41667;SDS011;27356;50.920;5.350;2023-04-01T03:17:36;2.05;;;1.00;;
41667;SDS011;27356;50.920;5.350;2023-04-01T03:20:03;1.42;;;0.73;;
41667;SDS011;27356;50.920;5.350;2023-04-01T03:22:30;0.88;;;0.65;;
41667;SDS011;27356;50.920;5.350;2023-04-01T03:24:55;2.28;;;0.90;;
41667;SDS011;27356;50.920;5.350;2023-04-01T03:27:21;0.70;;;0.63;;
41667;SDS011;27356;50.920;5.350;2023-04-01T03:29:48;1.17;;;0.80;;
41667;SDS011;27356;50.920;5.350;2023-04-01T03:32:14;0.50;;;0.50;;
41667;SDS011;27356;50.920;5.350;2023-04-01T03:34:39;3.15;;;1.00;;
41667;SDS011;27356;50.920;5.350;2023-04-01T03:37:05;1.45;;;0.70;;
41667;SDS011;27356;50.920;5.350;2023-04-01T03:39:31;1.15;;;0.90;;
41667;SDS011;27356;50.920;5.350;2023-04-01T03:41:57;4.20;;;1.20;;
41667;SDS011;27356;50.920;5.350;2023-04-01T03:44:22;2.90;;;1.50;;
41667;SDS011;27356;50.920;5.350;2023-04-01T03:46:48;2.70;;;1.48;;
41667;SDS011;27356;50.920;5.350;2023-04-01T03:49:14;4.22;;;1.67;;
41667;SDS011;27356;50.920;5.350;2023-04-01T03:51:43;4.10;;;2.05;;
41667;SDS011;27356;50.920;5.350;2023-04-01T03:54:09;6.38;;;2.65;;
41667;SDS011;27356;50.920;5.350;2023-04-01T03:56:35;4.30;;;1.92;;
41667;SDS011;27356;50.920;5.350;2023-04-01T03:59:02;3.42;;;1.83;;
41667;SDS011;27356;50.920;5.350;2023-04-01T04:01:29;4.65;;;1.75;;
41667;SDS011;27356;50.920;5.350;2023-04-01T04:03:55;5.47;;;2.03;;
41667;SDS011;27356;50.920;5.350;2023-04-01T04:06:22;5.55;;;1.88;;
41667;SDS011;27356;50.920;5.350;2023-04-01T04:08:48;3.47;;;1.70;;
41667;SDS011;27356;50.920;5.350;2023-04-01T04:11:14;3.63;;;2.28;;
41667;SDS011;27356;50.920;5.350;2023-04-01T04:13:40;2.90;;;2.00;;
41667;SDS011;27356;50.920;5.350;2023-04-01T04:16:08;5.25;;;1.92;;
41667;SDS011;27356;50.920;5.350;2023-04-01T04:18:34;7.55;;;1.60;;
41667;SDS011;27356;50.920;5.350;2023-04-01T04:21:00;3.67;;;1.60;;
41667;SDS011;27356;50.920;5.350;2023-04-01T04:23:26;5.35;;;1.67;;
41667;SDS011;27356;50.920;5.350;2023-04-01T04:25:55;4.65;;;1.70;;
41667;SDS011;27356;50.920;5.350;2023-04-01T04:28:29;5.82;;;1.77;;
41667;SDS011;27356;50.920;5.350;2023-04-01T04:30:55;4.57;;;1.90;;
41667;SDS011;27356;50.920;5.350;2023-04-01T04:33:21;3.50;;;1.73;;
41667;SDS011;27356;50.920;5.350;2023-04-01T04:35:48;2.28;;;1.95;;
41667;SDS011;27356;50.920;5.350;2023-04-01T04:38:14;5.85;;;2.15;;
41667;SDS011;27356;50.920;5.350;2023-04-01T04:40:41;4.32;;;2.28;;
41667;SDS011;27356;50.920;5.350;2023-04-01T04:43:09;4.57;;;2.40;;
41667;SDS011;27356;50.920;5.350;2023-04-01T04:45:36;6.65;;;2.40;;
41667;SDS011;27356;50.920;5.350;2023-04-01T04:48:02;4.78;;;2.53;;
41667;SDS011;27356;50.920;5.350;2023-04-01T04:50:28;7.10;;;2.78;;
41667;SDS011;27356;50.920;5.350;2023-04-01T04:52:53;5.18;;;2.75;;
41667;SDS011;27356;50.920;5.350;2023-04-01T04:55:19;7.55;;;2.92;;
41667;SDS011;27356;50.920;5.350;2023-04-01T04:57:45;5.88;;;3.28;;
41667;SDS011;27356;50.920;5.350;2023-04-01T05:00:11;7.03;;;3.70;;
41667;SDS011;27356;50.920;5.350;2023-04-01T05:02:37;8.27;;;3.78;;
41667;SDS011;27356;50.920;5.350;2023-04-01T05:05:02;9.27;;;3.85;;
41667;SDS011;27356;50.920;5.350;2023-04-01T05:07:29;4.95;;;3.20;;
41667;SDS011;27356;50.920;5.350;2023-04-01T05:09:55;9.25;;;4.15;;
41667;SDS011;27356;50.920;5.350;2023-04-01T05:12:20;10.57;;;4.07;;
41667;SDS011;27356;50.920;5.350;2023-04-01T05:14:46;10.23;;;4.05;;
41667;SDS011;27356;50.920;5.350;2023-04-01T05:17:12;8.95;;;4.32;;
41667;SDS011;27356;50.920;5.350;2023-04-01T05:19:38;11.63;;;4.18;;
41667;SDS011;27356;50.920;5.350;2023-04-01T05:22:04;13.55;;;4.07;;
41667;SDS011;27356;50.920;5.350;2023-04-01T05:24:31;9.63;;;4.78;;
41667;SDS011;27356;50.920;5.350;2023-04-01T05:26:57;8.48;;;4.10;;
41667;SDS011;27356;50.920;5.350;2023-04-01T05:29:23;10.57;;;4.43;;
41667;SDS011;27356;50.920;5.350;2023-04-01T05:31:50;10.82;;;4.63;;
41667;SDS011;27356;50.920;5.350;2023-04-01T05:34:16;7.60;;;4.13;;
41667;SDS011;27356;50.920;5.350;2023-04-01T05:36:42;9.57;;;4.40;;
41667;SDS011;27356;50.920;5.350;2023-04-01T05:39:09;8.95;;;4.97;;
41667;SDS011;27356;50.920;5.350;2023-04-01T05:41:35;8.00;;;4.28;;
41667;SDS011;27356;50.920;5.350;2023-04-01T05:44:02;8.70;;;4.75;;
41667;SDS011;27356;50.920;5.350;2023-04-01T05:46:27;9.88;;;5.13;;
41667;SDS011;27356;50.920;5.350;2023-04-01T05:48:53;8.88;;;4.65;;
41667;SDS011;27356;50.920;5.350;2023-04-01T05:51:19;8.05;;;4.03;;
41667;SDS011;27356;50.920;5.350;2023-04-01T05:53:45;6.25;;;4.78;;
41667;SDS011;27356;50.920;5.350;2023-04-01T05:56:11;6.22;;;3.90;;
41667;SDS011;27356;50.920;5.350;2023-04-01T05:58:37;6.65;;;4.07;;
41667;SDS011;27356;50.920;5.350;2023-04-01T06:01:04;8.50;;;3.80;;
41667;SDS011;27356;50.920;5.350;2023-04-01T06:03:31;7.25;;;3.75;;
41667;SDS011;27356;50.920;5.350;2023-04-01T06:05:57;5.97;;;3.38;;
41667;SDS011;27356;50.920;5.350;2023-04-01T06:08:23;4.60;;;3.05;;
41667;SDS011;27356;50.920;5.350;2023-04-01T06:13:57;5.75;;;3.08;;
41667;SDS011;27356;50.920;5.350;2023-04-01T06:19:32;4.85;;;2.85;;
41667;SDS011;27356;50.920;5.350;2023-04-01T06:28:06;3.17;;;2.10;;
41667;SDS011;27356;50.920;5.350;2023-04-01T06:48:15;2.17;;;1.90;;
41667;SDS011;27356;50.920;5.350;2023-04-01T06:51:04;2.20;;;2.10;;
41667;SDS011;27356;50.920;5.350;2023-04-01T06:53:41;1.60;;;1.30;;
41667;SDS011;27356;50.920;5.350;2023-04-01T06:56:24;1.75;;;1.50;;
41667;SDS011;27356;50.920;5.350;2023-04-01T06:58:53;2.28;;;1.20;;
41667;SDS011;27356;50.920;5.350;2023-04-01T07:01:39;2.45;;;1.00;;
41667;SDS011;27356;50.920;5.350;2023-04-01T07:04:14;0.85;;;0.68;;
41667;SDS011;27356;50.920;5.350;2023-04-01T07:06:52;0.70;;;0.70;;
41667;SDS011;27356;50.920;5.350;2023-04-01T07:09:23;0.90;;;0.82;;
41667;SDS011;27356;50.920;5.350;2023-04-01T07:11:56;1.77;;;0.77;;
41667;SDS011;27356;50.920;5.350;2023-04-01T07:14:36;0.98;;;0.93;;
41667;SDS011;27356;50.920;5.350;2023-04-01T07:19:42;0.93;;;0.70;;
41667;SDS011;27356;50.920;5.350;2023-04-01T07:22:22;0.73;;;0.73;;
41667;SDS011;27356;50.920;5.350;2023-04-01T07:25:02;2.67;;;0.70;;
41667;SDS011;27356;50.920;5.350;2023-04-01T07:27:36;1.35;;;0.98;;
41667;SDS011;27356;50.920;5.350;2023-04-01T07:30:03;1.20;;;1.10;;
41667;SDS011;27356;50.920;5.350;2023-04-01T07:32:42;1.02;;;1.02;;
41667;SDS011;27356;50.920;5.350;2023-04-01T07:35:26;1.13;;;1.02;;
41667;SDS011;27356;50.920;5.350;2023-04-01T07:38:08;1.20;;;1.10;;
41667;SDS011;27356;50.920;5.350;2023-04-01T07:41:09;2.65;;;0.90;;
41667;SDS011;27356;50.920;5.350;2023-04-01T07:44:05;1.05;;;0.90;;
41667;SDS011;27356;50.920;5.350;2023-04-01T07:49:28;0.85;;;0.50;;
41667;SDS011;27356;50.920;5.350;2023-04-01T07:52:00;1.02;;;0.50;;
41667;SDS011;27356;50.920;5.350;2023-04-01T07:57:17;0.98;;;0.40;;
41667;SDS011;27356;50.920;5.350;2023-04-01T08:00:11;0.40;;;0.40;;
41667;SDS011;27356;50.920;5.350;2023-04-01T08:02:58;0.50;;;0.50;;
41667;SDS011;27356;50.920;5.350;2023-04-01T08:05:29;0.50;;;0.40;;
41667;SDS011;27356;50.920;5.350;2023-04-01T08:21:52;2.80;;;0.47;;
41667;SDS011;27356;50.920;5.350;2023-04-01T08:24:20;0.40;;;0.40;;
41667;SDS011;27356;50.920;5.350;2023-04-01T08:26:53;0.50;;;0.50;;
41667;SDS011;27356;50.920;5.350;2023-04-01T08:29:25;0.57;;;0.40;;
41667;SDS011;27356;50.920;5.350;2023-04-01T08:32:28;1.25;;;0.57;;
41667;SDS011;27356;50.920;5.350;2023-04-01T08:37:38;4.30;;;0.93;;
41667;SDS011;27356;50.920;5.350;2023-04-01T08:48:53;0.53;;;0.53;;
41667;SDS011;27356;50.920;5.350;2023-04-01T08:59:41;1.40;;;0.70;;
41667;SDS011;27356;50.920;5.350;2023-04-01T09:05:12;0.75;;;0.60;;
41667;SDS011;27356;50.920;5.350;2023-04-01T09:16:22;1.02;;;0.45;;
41667;SDS011;27356;50.920;5.350;2023-04-01T09:19:15;0.65;;;0.60;;
41667;SDS011;27356;50.920;5.350;2023-04-01T09:25:22;0.70;;;0.70;;
41667;SDS011;27356;50.920;5.350;2023-04-01T09:39:35;3.65;;;1.05;;
41667;SDS011;27356;50.920;5.350;2023-04-01T09:44:59;0.95;;;0.70;;
41667;SDS011;27356;50.920;5.350;2023-04-01T09:47:51;1.60;;;0.75;;
41667;SDS011;27356;50.920;5.350;2023-04-01T09:53:46;2.30;;;0.88;;
41667;SDS011;27356;50.920;5.350;2023-04-01T10:09:58;0.60;;;0.40;;
41667;SDS011;27356;50.920;5.350;2023-04-01T10:26:38;0.50;;;0.50;;
41667;SDS011;27356;50.920;5.350;2023-04-01T10:32:43;1.70;;;0.60;;
41667;SDS011;27356;50.920;5.350;2023-04-01T10:58:00;1.50;;;0.93;;
41667;SDS011;27356;50.920;5.350;2023-04-01T11:03:26;0.80;;;0.80;;
41667;SDS011;27356;50.920;5.350;2023-04-01T11:11:28;1.58;;;0.90;;
41667;SDS011;27356;50.920;5.350;2023-04-01T11:14:13;1.55;;;0.90;;
41667;SDS011;27356;50.920;5.350;2023-04-01T11:32:46;2.50;;;2.30;;
41667;SDS011;27356;50.920;5.350;2023-04-01T11:40:41;3.42;;;2.90;;
41667;SDS011;27356;50.920;5.350;2023-04-01T11:43:20;4.40;;;3.45;;
41667;SDS011;27356;50.920;5.350;2023-04-01T11:46:10;3.42;;;3.13;;
41667;SDS011;27356;50.920;5.350;2023-04-01T11:48:46;4.40;;;3.47;;
41667;SDS011;27356;50.920;5.350;2023-04-01T11:57:21;6.15;;;4.10;;
41667;SDS011;27356;50.920;5.350;2023-04-01T12:00:02;4.38;;;3.97;;
41667;SDS011;27356;50.920;5.350;2023-04-01T12:05:32;4.72;;;3.85;;
41667;SDS011;27356;50.920;5.350;2023-04-01T12:10:59;4.80;;;3.15;;
41667;SDS011;27356;50.920;5.350;2023-04-01T12:13:45;5.40;;;3.08;;
41667;SDS011;27356;50.920;5.350;2023-04-01T12:16:41;1.70;;;1.60;;
41667;SDS011;27356;50.920;5.350;2023-04-01T12:19:26;2.83;;;1.95;;
41667;SDS011;27356;50.920;5.350;2023-04-01T12:22:36;1.45;;;1.35;;
41667;SDS011;27356;50.920;5.350;2023-04-01T12:28:03;1.38;;;0.73;;
41667;SDS011;27356;50.920;5.350;2023-04-01T12:30:54;0.90;;;0.32;;
41667;SDS011;27356;50.920;5.350;2023-04-01T12:36:00;0.47;;;0.47;;
41667;SDS011;27356;50.920;5.350;2023-04-01T12:44:58;3.42;;;1.73;;
41667;SDS011;27356;50.920;5.350;2023-04-01T12:50:42;2.95;;;1.98;;
41667;SDS011;27356;50.920;5.350;2023-04-01T12:56:07;3.75;;;2.42;;
41667;SDS011;27356;50.920;5.350;2023-04-01T12:58:51;2.92;;;2.72;;
41667;SDS011;27356;50.920;5.350;2023-04-01T13:17:53;1.50;;;1.40;;
41667;SDS011;27356;50.920;5.350;2023-04-01T13:20:25;1.65;;;1.52;;
41667;SDS011;27356;50.920;5.350;2023-04-01T13:24:16;1.88;;;1.77;;
41667;SDS011;27356;50.920;5.350;2023-04-01T13:26:20;2.03;;;1.92;;
41667;SDS011;27356;50.920;5.350;2023-04-01T13:31:54;2.97;;;2.40;;
41667;SDS011;27356;50.920;5.350;2023-04-01T13:42:45;1.80;;;1.70;;
41667;SDS011;27356;50.920;5.350;2023-04-01T13:45:21;3.22;;;2.38;;
41667;SDS011;27356;50.920;5.350;2023-04-01T13:47:53;2.40;;;2.20;;
41667;SDS011;27356;50.920;5.350;2023-04-01T14:10:34;3.28;;;3.00;;
41667;SDS011;27356;50.920;5.350;2023-04-01T14:37:54;3.08;;;1.10;;
41667;SDS011;27356;50.920;5.350;2023-04-01T14:46:23;0.80;;;0.80;;
41667;SDS011;27356;50.920;5.350;2023-04-01T14:48:57;1.40;;;0.80;;
41667;SDS011;27356;50.920;5.350;2023-04-01T14:51:40;1.20;;;1.10;;
41667;SDS011;27356;50.920;5.350;2023-04-01T14:57:12;1.00;;;1.00;;
41667;SDS011;27356;50.920;5.350;2023-04-01T14:59:41;1.17;;;0.60;;
41667;SDS011;27356;50.920;5.350;2023-04-01T15:24:47;0.43;;;0.43;;
41667;SDS011;27356;50.920;5.350;2023-04-01T15:36:21;1.20;;;0.80;;
41667;SDS011;27356;50.920;5.350;2023-04-01T15:55:22;2.40;;;1.20;;
41667;SDS011;27356;50.920;5.350;2023-04-01T16:03:57;1.17;;;0.80;;
41667;SDS011;27356;50.920;5.350;2023-04-01T16:09:00;1.60;;;0.60;;
41667;SDS011;27356;50.920;5.350;2023-04-01T16:14:42;0.50;;;0.50;;
41667;SDS011;27356;50.920;5.350;2023-04-01T16:17:48;1.30;;;0.50;;
41667;SDS011;27356;50.920;5.350;2023-04-01T16:23:05;0.50;;;0.45;;
41667;SDS011;27356;50.920;5.350;2023-04-01T16:25:40;2.80;;;1.02;;
41667;SDS011;27356;50.920;5.350;2023-04-01T16:30:56;1.45;;;1.35;;
41667;SDS011;27356;50.920;5.350;2023-04-01T16:33:35;1.10;;;1.10;;
41667;SDS011;27356;50.920;5.350;2023-04-01T16:36:28;0.90;;;0.90;;
41667;SDS011;27356;50.920;5.350;2023-04-01T16:41:36;1.20;;;0.70;;
41667;SDS011;27356;50.920;5.350;2023-04-01T16:46:52;0.63;;;0.63;;
41667;SDS011;27356;50.920;5.350;2023-04-01T16:49:30;1.08;;;0.82;;
41667;SDS011;27356;50.920;5.350;2023-04-01T16:54:40;0.90;;;0.90;;
41667;SDS011;27356;50.920;5.350;2023-04-01T16:57:18;1.48;;;1.38;;
41667;SDS011;27356;50.920;5.350;2023-04-01T17:02:49;2.70;;;2.50;;
41667;SDS011;27356;50.920;5.350;2023-04-01T17:05:23;3.13;;;2.40;;
41667;SDS011;27356;50.920;5.350;2023-04-01T17:08:14;8.15;;;3.42;;
41667;SDS011;27356;50.920;5.350;2023-04-01T17:16:14;6.57;;;3.90;;
41667;SDS011;27356;50.920;5.350;2023-04-01T17:21:57;4.63;;;3.78;;
41667;SDS011;27356;50.920;5.350;2023-04-01T17:33:08;4.38;;;3.50;;
41667;SDS011;27356;50.920;5.350;2023-04-01T17:36:35;3.17;;;2.97;;
41667;SDS011;27356;50.920;5.350;2023-04-01T17:41:42;3.38;;;3.08;;
41667;SDS011;27356;50.920;5.350;2023-04-01T17:47:13;3.00;;;2.80;;
41667;SDS011;27356;50.920;5.350;2023-04-01T17:52:34;3.17;;;2.97;;
41667;SDS011;27356;50.920;5.350;2023-04-01T18:00:58;3.95;;;2.80;;
41667;SDS011;27356;50.920;5.350;2023-04-01T18:09:16;4.05;;;3.70;;
41667;SDS011;27356;50.920;5.350;2023-04-01T18:28:17;2.60;;;2.40;;
41667;SDS011;27356;50.920;5.350;2023-04-01T18:31:08;3.92;;;2.80;;
41667;SDS011;27356;50.920;5.350;2023-04-01T18:33:46;2.80;;;2.60;;
41667;SDS011;27356;50.920;5.350;2023-04-01T18:44:49;2.90;;;2.40;;
41667;SDS011;27356;50.920;5.350;2023-04-01T18:58:58;4.35;;;3.25;;
41667;SDS011;27356;50.920;5.350;2023-04-01T19:04:23;4.00;;;3.60;;
41667;SDS011;27356;50.920;5.350;2023-04-01T19:06:59;3.65;;;3.35;;
41667;SDS011;27356;50.920;5.350;2023-04-01T19:09:30;3.90;;;3.60;;
41667;SDS011;27356;50.920;5.350;2023-04-01T19:27:52;5.25;;;4.80;;
41667;SDS011;27356;50.920;5.350;2023-04-01T19:33:41;5.97;;;5.38;;
41667;SDS011;27356;50.920;5.350;2023-04-01T19:36:16;5.38;;;4.88;;
41667;SDS011;27356;50.920;5.350;2023-04-01T19:50:27;9.07;;;6.43;;
41667;SDS011;27356;50.920;5.350;2023-04-01T19:53:44;8.57;;;7.10;;
41667;SDS011;27356;50.920;5.350;2023-04-01T19:56:12;7.78;;;7.10;;
41667;SDS011;27356;50.920;5.350;2023-04-01T19:58:45;11.73;;;7.55;;
41667;SDS011;27356;50.920;5.350;2023-04-01T20:01:22;9.93;;;8.93;;
41667;SDS011;27356;50.920;5.350;2023-04-01T20:04:15;9.80;;;8.32;;
41667;SDS011;27356;50.920;5.350;2023-04-01T20:06:56;10.77;;;7.97;;
41667;SDS011;27356;50.920;5.350;2023-04-01T20:09:42;8.82;;;8.02;;
41667;SDS011;27356;50.920;5.350;2023-04-01T20:14:54;8.10;;;7.18;;
41667;SDS011;27356;50.920;5.350;2023-04-01T20:17:23;8.93;;;8.02;;
41667;SDS011;27356;50.920;5.350;2023-04-01T20:28:05;8.65;;;7.82;;
41667;SDS011;27356;50.920;5.350;2023-04-01T20:39:10;9.02;;;8.13;;
41667;SDS011;27356;50.920;5.350;2023-04-01T20:42:03;9.68;;;8.70;;
41667;SDS011;27356;50.920;5.350;2023-04-01T20:52:49;11.82;;;10.55;;
41667;SDS011;27356;50.920;5.350;2023-04-01T21:01:10;13.02;;;9.85;;
41667;SDS011;27356;50.920;5.350;2023-04-01T21:06:44;10.25;;;8.93;;
41667;SDS011;27356;50.920;5.350;2023-04-01T21:09:29;9.00;;;7.65;;
41667;SDS011;27356;50.920;5.350;2023-04-01T21:20:30;8.55;;;7.65;;
41667;SDS011;27356;50.920;5.350;2023-04-01T21:34:36;10.13;;;9.02;;
41667;SDS011;27356;50.920;5.350;2023-04-01T21:46:24;9.52;;;8.05;;
41667;SDS011;27356;50.920;5.350;2023-04-01T21:54:55;10.98;;;8.95;;
41667;SDS011;27356;50.920;5.350;2023-04-01T22:03:10;11.68;;;9.45;;
41667;SDS011;27356;50.920;5.350;2023-04-01T22:06:07;12.30;;;10.57;;
41667;SDS011;27356;50.920;5.350;2023-04-01T22:11:43;16.92;;;11.25;;
41667;SDS011;27356;50.920;5.350;2023-04-01T22:23:10;10.02;;;8.70;;
41667;SDS011;27356;50.920;5.350;2023-04-01T22:31:18;7.90;;;7.20;;
41667;SDS011;27356;50.920;5.350;2023-04-01T22:34:01;8.63;;;7.72;;
41667;SDS011;27356;50.920;5.350;2023-04-01T22:36:48;8.73;;;7.10;;
41667;SDS011;27356;50.920;5.350;2023-04-01T22:42:18;9.02;;;7.30;;
41667;SDS011;27356;50.920;5.350;2023-04-01T22:50:20;9.20;;;7.90;;
41667;SDS011;27356;50.920;5.350;2023-04-01T22:52:54;9.32;;;7.65;;
41667;SDS011;27356;50.920;5.350;2023-04-01T22:55:46;10.27;;;9.27;;
41667;SDS011;27356;50.920;5.350;2023-04-01T22:58:16;10.57;;;9.48;;
41667;SDS011;27356;50.920;5.350;2023-04-01T23:01:12;11.15;;;9.50;;
41667;SDS011;27356;50.920;5.350;2023-04-01T23:03:46;11.43;;;10.32;;
41667;SDS011;27356;50.920;5.350;2023-04-01T23:06:17;14.88;;;10.02;;
41667;SDS011;27356;50.920;5.350;2023-04-01T23:14:21;11.93;;;10.70;;
41667;SDS011;27356;50.920;5.350;2023-04-01T23:22:21;17.00;;;13.13;;
41667;SDS011;27356;50.920;5.350;2023-04-01T23:30:57;15.15;;;11.90;;
41667;SDS011;27356;50.920;5.350;2023-04-01T23:33:26;13.48;;;11.05;;
41667;SDS011;27356;50.920;5.350;2023-04-01T23:35:58;13.23;;;11.82;;
41667;SDS011;27356;50.920;5.350;2023-04-01T23:38:31;12.43;;;11.13;;
41667;SDS011;27356;50.920;5.350;2023-04-01T23:41:01;13.80;;;10.57;;
41667;SDS011;27356;50.920;5.350;2023-04-01T23:43:33;11.00;;;9.32;;
41667;SDS011;27356;50.920;5.350;2023-04-01T23:46:05;11.07;;;9.27;;
41667;SDS011;27356;50.920;5.350;2023-04-01T23:51:00;8.63;;;7.82;;
41667;SDS011;27356;50.920;5.350;2023-04-01T23:53:28;9.00;;;8.10;;
41667;SDS011;27356;50.920;5.350;2023-04-01T23:55:57;9.52;;;8.52;;
